sensor_id;sensor_type;location;lat;lon;timestamp;P1;durP1;ratioP1;P2;durP2;ratioP2
73557;SDS011;61829;53.286;10.434;2023-01-05T00:02:19;5.80;;;1.30;;
73557;SDS011;61829;53.286;10.434;2023-01-05T00:04:46;8.52;;;1.25;;
73557;SDS011;61829;53.286;10.434;2023-01-05T00:07:11;9.25;;;1.65;;
73557;SDS011;61829;53.286;10.434;2023-01-05T00:13:19;7.40;;;1.25;;
73557;SDS011;61829;53.286;10.434;2023-01-05T00:16:07;4.72;;;1.30;;
73557;SDS011;61829;53.286;10.434;2023-01-05T00:18:55;6.75;;;1.50;;
73557;SDS011;61829;53.286;10.434;2023-01-05T00:21:40;5.75;;;1.05;;
73557;SDS011;61829;53.286;10.434;2023-01-05T00:24:25;8.27;;;1.50;;
73557;SDS011;61829;53.286;10.434;2023-01-05T00:26:52;6.95;;;1.40;;
73557;SDS011;61829;53.286;10.434;2023-01-05T00:29:17;9.38;;;1.55;;
73557;SDS011;61829;53.286;10.434;2023-01-05T00:31:44;8.32;;;1.40;;
73557;SDS011;61829;53.286;10.434;2023-01-05T00:34:09;6.70;;;1.40;;
73557;SDS011;61829;53.286;10.434;2023-01-05T00:36:36;10.30;;;1.75;;
73557;SDS011;61829;53.286;10.434;2023-01-05T00:39:01;5.53;;;1.25;;
73557;SDS011;61829;53.286;10.434;2023-01-05T00:41:28;11.55;;;1.90;;
73557;SDS011;61829;53.286;10.434;2023-01-05T00:43:54;9.15;;;1.55;;
73557;SDS011;61829;53.286;10.434;2023-01-05T00:46:20;8.88;;;1.80;;
73557;SDS011;61829;53.286;10.434;2023-01-05T00:48:46;8.60;;;1.98;;
73557;SDS011;61829;53.286;10.434;2023-01-05T00:51:12;5.75;;;1.33;;
73557;SDS011;61829;53.286;10.434;2023-01-05T00:53:38;9.50;;;1.40;;
73557;SDS011;61829;53.286;10.434;2023-01-05T00:56:05;5.57;;;1.30;;
73557;SDS011;61829;53.286;10.434;2023-01-05T00:58:31;9.02;;;1.60;;
73557;SDS011;61829;53.286;10.434;2023-01-05T01:00:57;5.55;;;1.23;;
73557;SDS011;61829;53.286;10.434;2023-01-05T01:03:23;6.18;;;1.42;;
73557;SDS011;61829;53.286;10.434;2023-01-05T01:05:56;8.85;;;1.33;;
73557;SDS011;61829;53.286;10.434;2023-01-05T01:08:22;5.68;;;1.35;;
73557;SDS011;61829;53.286;10.434;2023-01-05T01:10:48;6.35;;;1.20;;
73557;SDS011;61829;53.286;10.434;2023-01-05T01:13:14;5.40;;;1.20;;
73557;SDS011;61829;53.286;10.434;2023-01-05T01:15:40;6.03;;;1.20;;
73557;SDS011;61829;53.286;10.434;2023-01-05T01:18:06;6.65;;;0.90;;
73557;SDS011;61829;53.286;10.434;2023-01-05T01:20:32;4.35;;;1.08;;
73557;SDS011;61829;53.286;10.434;2023-01-05T01:22:58;11.05;;;1.42;;
73557;SDS011;61829;53.286;10.434;2023-01-05T01:25:27;7.60;;;1.23;;
73557;SDS011;61829;53.286;10.434;2023-01-05T01:27:53;5.80;;;1.27;;
73557;SDS011;61829;53.286;10.434;2023-01-05T01:30:19;2.92;;;0.68;;
73557;SDS011;61829;53.286;10.434;2023-01-05T01:32:45;2.47;;;0.70;;
73557;SDS011;61829;53.286;10.434;2023-01-05T01:35:12;3.60;;;0.90;;
73557;SDS011;61829;53.286;10.434;2023-01-05T01:37:38;5.78;;;1.23;;
73557;SDS011;61829;53.286;10.434;2023-01-05T01:40:05;5.65;;;0.98;;
73557;SDS011;61829;53.286;10.434;2023-01-05T01:42:32;4.68;;;1.23;;
73557;SDS011;61829;53.286;10.434;2023-01-05T01:44:59;8.32;;;1.67;;
73557;SDS011;61829;53.286;10.434;2023-01-05T01:47:29;3.30;;;1.10;;
73557;SDS011;61829;53.286;10.434;2023-01-05T01:52:52;3.60;;;0.80;;
73557;SDS011;61829;53.286;10.434;2023-01-05T01:55:22;8.27;;;1.10;;
73557;SDS011;61829;53.286;10.434;2023-01-05T01:57:49;4.03;;;0.93;;
73557;SDS011;61829;53.286;10.434;2023-01-05T02:00:16;6.43;;;1.05;;
73557;SDS011;61829;53.286;10.434;2023-01-05T02:02:44;2.15;;;0.90;;
73557;SDS011;61829;53.286;10.434;2023-01-05T02:05:12;3.13;;;1.00;;
73557;SDS011;61829;53.286;10.434;2023-01-05T02:07:45;4.22;;;1.00;;
73557;SDS011;61829;53.286;10.434;2023-01-05T02:10:13;4.90;;;1.02;;
73557;SDS011;61829;53.286;10.434;2023-01-05T02:15:28;5.97;;;1.75;;
73557;SDS011;61829;53.286;10.434;2023-01-05T02:18:10;5.88;;;1.02;;
73557;SDS011;61829;53.286;10.434;2023-01-05T02:31:39;5.43;;;1.20;;
73557;SDS011;61829;53.286;10.434;2023-01-05T02:36:57;2.35;;;0.65;;
73557;SDS011;61829;53.286;10.434;2023-01-05T02:39:32;2.42;;;0.63;;
73557;SDS011;61829;53.286;10.434;2023-01-05T02:42:10;1.77;;;0.60;;
73557;SDS011;61829;53.286;10.434;2023-01-05T02:44:41;1.10;;;0.50;;
73557;SDS011;61829;53.286;10.434;2023-01-05T02:47:52;1.85;;;0.50;;
73557;SDS011;61829;53.286;10.434;2023-01-05T02:49:56;1.50;;;0.50;;
73557;SDS011;61829;53.286;10.434;2023-01-05T02:52:24;1.90;;;0.47;;
73557;SDS011;61829;53.286;10.434;2023-01-05T02:57:29;0.82;;;0.45;;
73557;SDS011;61829;53.286;10.434;2023-01-05T03:00:29;0.93;;;0.40;;
73557;SDS011;61829;53.286;10.434;2023-01-05T03:03:01;0.65;;;0.30;;
73557;SDS011;61829;53.286;10.434;2023-01-05T03:08:09;1.48;;;0.32;;
73557;SDS011;61829;53.286;10.434;2023-01-05T03:13:50;0.70;;;0.43;;
73557;SDS011;61829;53.286;10.434;2023-01-05T03:16:25;2.45;;;0.50;;
73557;SDS011;61829;53.286;10.434;2023-01-05T03:18:55;1.02;;;0.40;;
73557;SDS011;61829;53.286;10.434;2023-01-05T03:21:43;1.98;;;0.70;;
73557;SDS011;61829;53.286;10.434;2023-01-05T03:24:28;1.23;;;0.50;;
73557;SDS011;61829;53.286;10.434;2023-01-05T03:27:13;4.25;;;0.75;;
73557;SDS011;61829;53.286;10.434;2023-01-05T03:29:59;3.05;;;0.93;;
73557;SDS011;61829;53.286;10.434;2023-01-05T03:32:51;1.80;;;0.63;;
73557;SDS011;61829;53.286;10.434;2023-01-05T03:35:43;3.42;;;0.70;;
73557;SDS011;61829;53.286;10.434;2023-01-05T03:41:00;0.63;;;0.60;;
73557;SDS011;61829;53.286;10.434;2023-01-05T03:43:32;1.05;;;0.52;;
73557;SDS011;61829;53.286;10.434;2023-01-05T03:46:00;3.22;;;0.80;;
73557;SDS011;61829;53.286;10.434;2023-01-05T03:48:44;2.42;;;0.73;;
73557;SDS011;61829;53.286;10.434;2023-01-05T03:51:11;4.07;;;0.80;;
73557;SDS011;61829;53.286;10.434;2023-01-05T03:53:39;3.70;;;0.68;;
73557;SDS011;61829;53.286;10.434;2023-01-05T03:56:05;1.40;;;0.73;;
73557;SDS011;61829;53.286;10.434;2023-01-05T03:58:32;2.50;;;0.60;;
73557;SDS011;61829;53.286;10.434;2023-01-05T04:04:58;0.68;;;0.30;;
73557;SDS011;61829;53.286;10.434;2023-01-05T04:07:24;1.23;;;0.40;;
73557;SDS011;61829;53.286;10.434;2023-01-05T04:09:50;0.70;;;0.40;;
73557;SDS011;61829;53.286;10.434;2023-01-05T04:12:16;1.77;;;0.57;;
73557;SDS011;61829;53.286;10.434;2023-01-05T04:14:42;3.10;;;0.47;;
73557;SDS011;61829;53.286;10.434;2023-01-05T04:17:08;1.45;;;0.57;;
73557;SDS011;61829;53.286;10.434;2023-01-05T04:19:34;2.20;;;0.40;;
73557;SDS011;61829;53.286;10.434;2023-01-05T04:22:00;3.33;;;0.63;;
73557;SDS011;61829;53.286;10.434;2023-01-05T04:24:26;0.57;;;0.40;;
73557;SDS011;61829;53.286;10.434;2023-01-05T04:26:52;2.50;;;0.70;;
73557;SDS011;61829;53.286;10.434;2023-01-05T04:29:18;1.88;;;0.50;;
73557;SDS011;61829;53.286;10.434;2023-01-05T04:31:44;3.47;;;0.60;;
73557;SDS011;61829;53.286;10.434;2023-01-05T04:34:10;1.85;;;0.50;;
73557;SDS011;61829;53.286;10.434;2023-01-05T04:36:36;1.80;;;0.52;;
73557;SDS011;61829;53.286;10.434;2023-01-05T04:39:02;1.67;;;0.52;;
73557;SDS011;61829;53.286;10.434;2023-01-05T04:41:28;2.08;;;0.63;;
73557;SDS011;61829;53.286;10.434;2023-01-05T04:43:54;1.20;;;0.50;;
73557;SDS011;61829;53.286;10.434;2023-01-05T04:46:20;3.30;;;0.88;;
73557;SDS011;61829;53.286;10.434;2023-01-05T04:48:46;0.40;;;0.30;;
73557;SDS011;61829;53.286;10.434;2023-01-05T04:51:12;2.38;;;0.47;;
73557;SDS011;61829;53.286;10.434;2023-01-05T04:53:38;0.30;;;0.20;;
73557;SDS011;61829;53.286;10.434;2023-01-05T04:56:05;1.50;;;0.40;;
73557;SDS011;61829;53.286;10.434;2023-01-05T04:58:31;1.25;;;0.43;;
73557;SDS011;61829;53.286;10.434;2023-01-05T05:00:57;0.45;;;0.40;;
73557;SDS011;61829;53.286;10.434;2023-01-05T05:03:23;1.08;;;0.45;;
73557;SDS011;61829;53.286;10.434;2023-01-05T05:05:49;1.45;;;0.35;;
73557;SDS011;61829;53.286;10.434;2023-01-05T05:08:15;1.95;;;0.43;;
73557;SDS011;61829;53.286;10.434;2023-01-05T05:10:42;0.90;;;0.32;;
73557;SDS011;61829;53.286;10.434;2023-01-05T05:13:08;0.35;;;0.20;;
73557;SDS011;61829;53.286;10.434;2023-01-05T05:15:34;4.18;;;0.68;;
73557;SDS011;61829;53.286;10.434;2023-01-05T05:18:00;0.30;;;0.30;;
73557;SDS011;61829;53.286;10.434;2023-01-05T05:20:26;2.78;;;0.30;;
73557;SDS011;61829;53.286;10.434;2023-01-05T05:22:52;1.98;;;0.68;;
73557;SDS011;61829;53.286;10.434;2023-01-05T05:25:19;1.95;;;0.35;;
73557;SDS011;61829;53.286;10.434;2023-01-05T05:27:45;1.65;;;0.47;;
73557;SDS011;61829;53.286;10.434;2023-01-05T05:30:11;0.95;;;0.47;;
73557;SDS011;61829;53.286;10.434;2023-01-05T05:32:38;0.90;;;0.40;;
73557;SDS011;61829;53.286;10.434;2023-01-05T05:35:04;0.55;;;0.25;;
73557;SDS011;61829;53.286;10.434;2023-01-05T05:37:30;0.43;;;0.40;;
73557;SDS011;61829;53.286;10.434;2023-01-05T05:39:56;1.15;;;0.30;;
73557;SDS011;61829;53.286;10.434;2023-01-05T05:42:22;0.50;;;0.28;;
73557;SDS011;61829;53.286;10.434;2023-01-05T05:44:48;1.60;;;0.50;;
73557;SDS011;61829;53.286;10.434;2023-01-05T05:47:14;1.77;;;0.30;;
73557;SDS011;61829;53.286;10.434;2023-01-05T05:49:42;3.33;;;0.50;;
73557;SDS011;61829;53.286;10.434;2023-01-05T05:52:07;0.30;;;0.30;;
73557;SDS011;61829;53.286;10.434;2023-01-05T05:54:34;3.95;;;0.30;;
73557;SDS011;61829;53.286;10.434;2023-01-05T05:57:00;3.05;;;0.57;;
73557;SDS011;61829;53.286;10.434;2023-01-05T05:59:26;0.63;;;0.35;;
73557;SDS011;61829;53.286;10.434;2023-01-05T06:04:55;0.85;;;0.40;;
73557;SDS011;61829;53.286;10.434;2023-01-05T06:07:21;0.45;;;0.45;;
73557;SDS011;61829;53.286;10.434;2023-01-05T06:09:47;1.38;;;0.38;;
73557;SDS011;61829;53.286;10.434;2023-01-05T06:12:13;0.57;;;0.40;;
73557;SDS011;61829;53.286;10.434;2023-01-05T06:14:39;2.70;;;0.63;;
73557;SDS011;61829;53.286;10.434;2023-01-05T06:17:06;0.82;;;0.50;;
73557;SDS011;61829;53.286;10.434;2023-01-05T06:19:33;0.85;;;0.50;;
73557;SDS011;61829;53.286;10.434;2023-01-05T06:21:59;3.78;;;0.57;;
73557;SDS011;61829;53.286;10.434;2023-01-05T06:24:24;1.02;;;0.28;;
73557;SDS011;61829;53.286;10.434;2023-01-05T06:26:50;2.83;;;0.63;;
73557;SDS011;61829;53.286;10.434;2023-01-05T06:29:16;2.60;;;0.63;;
73557;SDS011;61829;53.286;10.434;2023-01-05T06:31:43;1.85;;;0.30;;
73557;SDS011;61829;53.286;10.434;2023-01-05T06:34:08;3.05;;;0.90;;
73557;SDS011;61829;53.286;10.434;2023-01-05T06:36:35;1.55;;;0.50;;
73557;SDS011;61829;53.286;10.434;2023-01-05T06:39:00;2.88;;;0.55;;
73557;SDS011;61829;53.286;10.434;2023-01-05T06:41:27;0.45;;;0.43;;
73557;SDS011;61829;53.286;10.434;2023-01-05T06:43:52;3.60;;;0.55;;
73557;SDS011;61829;53.286;10.434;2023-01-05T06:46:19;5.20;;;0.98;;
73557;SDS011;61829;53.286;10.434;2023-01-05T06:48:45;2.38;;;0.70;;
73557;SDS011;61829;53.286;10.434;2023-01-05T06:51:11;3.03;;;1.20;;
73557;SDS011;61829;53.286;10.434;2023-01-05T06:53:37;3.08;;;0.85;;
73557;SDS011;61829;53.286;10.434;2023-01-05T06:56:03;5.68;;;1.13;;
73557;SDS011;61829;53.286;10.434;2023-01-05T06:58:30;3.13;;;0.73;;
73557;SDS011;61829;53.286;10.434;2023-01-05T07:00:56;4.43;;;0.70;;
73557;SDS011;61829;53.286;10.434;2023-01-05T07:03:22;4.05;;;0.70;;
73557;SDS011;61829;53.286;10.434;2023-01-05T07:05:49;4.47;;;0.88;;
73557;SDS011;61829;53.286;10.434;2023-01-05T07:08:16;3.50;;;0.60;;
73557;SDS011;61829;53.286;10.434;2023-01-05T07:10:42;3.85;;;0.63;;
73557;SDS011;61829;53.286;10.434;2023-01-05T07:13:08;2.45;;;0.60;;
73557;SDS011;61829;53.286;10.434;2023-01-05T07:15:34;4.60;;;0.77;;
73557;SDS011;61829;53.286;10.434;2023-01-05T07:18:00;4.03;;;0.80;;
73557;SDS011;61829;53.286;10.434;2023-01-05T07:20:26;2.17;;;0.60;;
73557;SDS011;61829;53.286;10.434;2023-01-05T07:22:52;6.28;;;0.88;;
73557;SDS011;61829;53.286;10.434;2023-01-05T07:25:18;2.85;;;1.00;;
73557;SDS011;61829;53.286;10.434;2023-01-05T07:27:50;6.13;;;0.98;;
73557;SDS011;61829;53.286;10.434;2023-01-05T07:30:17;3.70;;;0.80;;
73557;SDS011;61829;53.286;10.434;2023-01-05T07:32:43;4.93;;;1.02;;
73557;SDS011;61829;53.286;10.434;2023-01-05T07:35:09;5.47;;;0.68;;
73557;SDS011;61829;53.286;10.434;2023-01-05T07:37:35;3.22;;;0.80;;
73557;SDS011;61829;53.286;10.434;2023-01-05T07:40:01;3.72;;;1.10;;
73557;SDS011;61829;53.286;10.434;2023-01-05T07:42:27;4.63;;;0.88;;
73557;SDS011;61829;53.286;10.434;2023-01-05T07:44:55;4.32;;;1.08;;
73557;SDS011;61829;53.286;10.434;2023-01-05T07:47:21;5.72;;;0.90;;
73557;SDS011;61829;53.286;10.434;2023-01-05T07:49:47;3.80;;;1.30;;
73557;SDS011;61829;53.286;10.434;2023-01-05T07:52:13;6.22;;;1.00;;
73557;SDS011;61829;53.286;10.434;2023-01-05T07:54:39;4.78;;;1.13;;
73557;SDS011;61829;53.286;10.434;2023-01-05T07:57:05;4.38;;;0.90;;
73557;SDS011;61829;53.286;10.434;2023-01-05T07:59:32;7.63;;;1.30;;
73557;SDS011;61829;53.286;10.434;2023-01-05T08:01:57;8.68;;;1.30;;
73557;SDS011;61829;53.286;10.434;2023-01-05T08:04:24;9.70;;;1.10;;
73557;SDS011;61829;53.286;10.434;2023-01-05T08:06:50;4.85;;;1.02;;
73557;SDS011;61829;53.286;10.434;2023-01-05T08:12:01;9.77;;;1.00;;
73557;SDS011;61829;53.286;10.434;2023-01-05T08:14:27;4.82;;;0.90;;
73557;SDS011;61829;53.286;10.434;2023-01-05T08:16:53;2.78;;;1.17;;
73557;SDS011;61829;53.286;10.434;2023-01-05T08:19:19;8.68;;;0.93;;
73557;SDS011;61829;53.286;10.434;2023-01-05T08:21:45;9.48;;;1.67;;
73557;SDS011;61829;53.286;10.434;2023-01-05T08:24:12;2.85;;;0.68;;
73557;SDS011;61829;53.286;10.434;2023-01-05T08:26:38;9.00;;;1.30;;
73557;SDS011;61829;53.286;10.434;2023-01-05T08:29:04;4.43;;;0.90;;
73557;SDS011;61829;53.286;10.434;2023-01-05T08:31:30;4.93;;;1.00;;
73557;SDS011;61829;53.286;10.434;2023-01-05T08:34:02;3.88;;;1.30;;
73557;SDS011;61829;53.286;10.434;2023-01-05T08:38:58;3.53;;;0.95;;
73557;SDS011;61829;53.286;10.434;2023-01-05T08:41:26;4.65;;;1.10;;
73557;SDS011;61829;53.286;10.434;2023-01-05T08:43:56;4.85;;;0.80;;
73557;SDS011;61829;53.286;10.434;2023-01-05T08:46:25;5.40;;;0.85;;
73557;SDS011;61829;53.286;10.434;2023-01-05T08:48:56;8.88;;;1.52;;
73557;SDS011;61829;53.286;10.434;2023-01-05T08:51:24;9.82;;;1.17;;
73557;SDS011;61829;53.286;10.434;2023-01-05T08:53:51;7.80;;;1.50;;
73557;SDS011;61829;53.286;10.434;2023-01-05T08:56:17;8.80;;;0.85;;
73557;SDS011;61829;53.286;10.434;2023-01-05T08:58:45;5.57;;;1.30;;
73557;SDS011;61829;53.286;10.434;2023-01-05T09:01:12;5.68;;;1.42;;
73557;SDS011;61829;53.286;10.434;2023-01-05T09:03:40;7.03;;;1.17;;
73557;SDS011;61829;53.286;10.434;2023-01-05T09:06:08;5.55;;;1.13;;
73557;SDS011;61829;53.286;10.434;2023-01-05T09:08:37;6.63;;;1.30;;
73557;SDS011;61829;53.286;10.434;2023-01-05T09:11:15;8.20;;;1.02;;
73557;SDS011;61829;53.286;10.434;2023-01-05T09:13:49;5.43;;;1.60;;
73557;SDS011;61829;53.286;10.434;2023-01-05T09:16:18;7.43;;;1.20;;
73557;SDS011;61829;53.286;10.434;2023-01-05T09:18:47;3.95;;;0.90;;
73557;SDS011;61829;53.286;10.434;2023-01-05T09:21:13;9.13;;;1.17;;
73557;SDS011;61829;53.286;10.434;2023-01-05T09:23:40;3.85;;;1.23;;
73557;SDS011;61829;53.286;10.434;2023-01-05T09:26:06;7.18;;;1.23;;
73557;SDS011;61829;53.286;10.434;2023-01-05T09:28:34;6.85;;;0.90;;
73557;SDS011;61829;53.286;10.434;2023-01-05T09:31:09;8.73;;;1.23;;
73557;SDS011;61829;53.286;10.434;2023-01-05T09:33:55;7.43;;;1.10;;
73557;SDS011;61829;53.286;10.434;2023-01-05T09:36:22;5.82;;;1.10;;
73557;SDS011;61829;53.286;10.434;2023-01-05T09:38:50;6.75;;;1.48;;
73557;SDS011;61829;53.286;10.434;2023-01-05T09:44:15;4.63;;;0.88;;
73557;SDS011;61829;53.286;10.434;2023-01-05T09:46:58;4.85;;;1.02;;
73557;SDS011;61829;53.286;10.434;2023-01-05T09:49:35;9.52;;;1.13;;
73557;SDS011;61829;53.286;10.434;2023-01-05T09:52:03;10.38;;;1.50;;
73557;SDS011;61829;53.286;10.434;2023-01-05T09:54:33;5.38;;;1.00;;
73557;SDS011;61829;53.286;10.434;2023-01-05T09:57:03;5.80;;;1.27;;
73557;SDS011;61829;53.286;10.434;2023-01-05T09:59:36;7.45;;;1.23;;
73557;SDS011;61829;53.286;10.434;2023-01-05T10:04:51;4.30;;;1.10;;
73557;SDS011;61829;53.286;10.434;2023-01-05T10:07:29;6.28;;;1.52;;
73557;SDS011;61829;53.286;10.434;2023-01-05T10:09:57;6.88;;;2.35;;
73557;SDS011;61829;53.286;10.434;2023-01-05T10:12:34;10.57;;;1.25;;
73557;SDS011;61829;53.286;10.434;2023-01-05T10:15:51;7.65;;;1.50;;
73557;SDS011;61829;53.286;10.434;2023-01-05T10:18:26;7.50;;;1.20;;
73557;SDS011;61829;53.286;10.434;2023-01-05T10:20:56;6.40;;;1.45;;
73557;SDS011;61829;53.286;10.434;2023-01-05T10:26:31;8.77;;;1.30;;
73557;SDS011;61829;53.286;10.434;2023-01-05T10:29:11;10.13;;;1.10;;
73557;SDS011;61829;53.286;10.434;2023-01-05T10:31:50;13.52;;;1.42;;
73557;SDS011;61829;53.286;10.434;2023-01-05T10:45:35;12.77;;;1.63;;
73557;SDS011;61829;53.286;10.434;2023-01-05T10:48:02;4.07;;;1.33;;
73557;SDS011;61829;53.286;10.434;2023-01-05T10:50:41;7.00;;;1.00;;
73557;SDS011;61829;53.286;10.434;2023-01-05T10:53:19;4.40;;;1.02;;
73557;SDS011;61829;53.286;10.434;2023-01-05T10:56:02;5.60;;;1.08;;
73557;SDS011;61829;53.286;10.434;2023-01-05T10:58:36;8.13;;;1.23;;
73557;SDS011;61829;53.286;10.434;2023-01-05T11:03:47;5.97;;;1.48;;
73557;SDS011;61829;53.286;10.434;2023-01-05T11:06:19;5.65;;;1.27;;
73557;SDS011;61829;53.286;10.434;2023-01-05T11:08:48;8.82;;;1.25;;
73557;SDS011;61829;53.286;10.434;2023-01-05T11:11:22;5.50;;;0.88;;
73557;SDS011;61829;53.286;10.434;2023-01-05T11:13:54;3.45;;;0.80;;
73557;SDS011;61829;53.286;10.434;2023-01-05T11:16:25;6.82;;;1.60;;
73557;SDS011;61829;53.286;10.434;2023-01-05T11:21:41;9.35;;;1.17;;
73557;SDS011;61829;53.286;10.434;2023-01-05T11:24:31;4.03;;;0.68;;
73557;SDS011;61829;53.286;10.434;2023-01-05T11:27:41;4.72;;;0.90;;
73557;SDS011;61829;53.286;10.434;2023-01-05T11:32:46;7.55;;;1.25;;
73557;SDS011;61829;53.286;10.434;2023-01-05T11:35:16;8.88;;;1.13;;
73557;SDS011;61829;53.286;10.434;2023-01-05T11:37:43;5.70;;;1.10;;
73557;SDS011;61829;53.286;10.434;2023-01-05T11:40:17;5.68;;;1.52;;
73557;SDS011;61829;53.286;10.434;2023-01-05T11:42:44;7.53;;;1.40;;
73557;SDS011;61829;53.286;10.434;2023-01-05T11:45:23;11.25;;;1.13;;
73557;SDS011;61829;53.286;10.434;2023-01-05T11:47:54;7.93;;;1.85;;
73557;SDS011;61829;53.286;10.434;2023-01-05T11:50:24;8.93;;;1.25;;
73557;SDS011;61829;53.286;10.434;2023-01-05T11:52:53;6.60;;;1.50;;
73557;SDS011;61829;53.286;10.434;2023-01-05T11:55:32;8.23;;;1.67;;
73557;SDS011;61829;53.286;10.434;2023-01-05T11:58:21;6.68;;;1.60;;
73557;SDS011;61829;53.286;10.434;2023-01-05T12:00:52;10.02;;;2.00;;
73557;SDS011;61829;53.286;10.434;2023-01-05T12:03:58;8.05;;;1.23;;
73557;SDS011;61829;53.286;10.434;2023-01-05T12:06:49;11.15;;;1.25;;
73557;SDS011;61829;53.286;10.434;2023-01-05T12:11:57;6.20;;;1.30;;
73557;SDS011;61829;53.286;10.434;2023-01-05T12:26:52;6.60;;;1.38;;
73557;SDS011;61829;53.286;10.434;2023-01-05T12:29:36;11.55;;;1.55;;
73557;SDS011;61829;53.286;10.434;2023-01-05T12:45:19;5.20;;;1.00;;
73557;SDS011;61829;53.286;10.434;2023-01-05T12:48:02;7.90;;;1.67;;
73557;SDS011;61829;53.286;10.434;2023-01-05T12:53:13;5.80;;;1.15;;
73557;SDS011;61829;53.286;10.434;2023-01-05T12:55:47;6.95;;;1.30;;
73557;SDS011;61829;53.286;10.434;2023-01-05T12:58:26;8.65;;;1.42;;
73557;SDS011;61829;53.286;10.434;2023-01-05T13:00:57;9.70;;;2.17;;
73557;SDS011;61829;53.286;10.434;2023-01-05T13:03:37;9.63;;;1.52;;
73557;SDS011;61829;53.286;10.434;2023-01-05T13:08:40;12.45;;;1.58;;
73557;SDS011;61829;53.286;10.434;2023-01-05T13:13:41;9.30;;;1.55;;
73557;SDS011;61829;53.286;10.434;2023-01-05T13:16:20;6.80;;;1.60;;
73557;SDS011;61829;53.286;10.434;2023-01-05T13:18:51;12.63;;;1.50;;
73557;SDS011;61829;53.286;10.434;2023-01-05T13:21:21;7.72;;;1.35;;
73557;SDS011;61829;53.286;10.434;2023-01-05T13:23:51;8.68;;;1.42;;
73557;SDS011;61829;53.286;10.434;2023-01-05T13:26:23;7.03;;;2.08;;
73557;SDS011;61829;53.286;10.434;2023-01-05T13:28:53;11.48;;;2.00;;
73557;SDS011;61829;53.286;10.434;2023-01-05T13:39:57;7.22;;;1.25;;
73557;SDS011;61829;53.286;10.434;2023-01-05T13:53:25;5.32;;;1.10;;
73557;SDS011;61829;53.286;10.434;2023-01-05T13:55:56;3.25;;;1.20;;
73557;SDS011;61829;53.286;10.434;2023-01-05T13:58:35;7.93;;;1.50;;
73557;SDS011;61829;53.286;10.434;2023-01-05T14:01:03;11.48;;;1.60;;
73557;SDS011;61829;53.286;10.434;2023-01-05T14:03:34;7.07;;;1.35;;
73557;SDS011;61829;53.286;10.434;2023-01-05T14:06:14;12.70;;;1.90;;
73557;SDS011;61829;53.286;10.434;2023-01-05T14:08:47;8.30;;;1.50;;
73557;SDS011;61829;53.286;10.434;2023-01-05T14:11:30;7.07;;;1.17;;
73557;SDS011;61829;53.286;10.434;2023-01-05T14:13:57;5.55;;;1.17;;
73557;SDS011;61829;53.286;10.434;2023-01-05T14:27:10;7.03;;;1.30;;
73557;SDS011;61829;53.286;10.434;2023-01-05T14:34:50;6.47;;;1.50;;
73557;SDS011;61829;53.286;10.434;2023-01-05T14:40:00;10.43;;;1.23;;
73557;SDS011;61829;53.286;10.434;2023-01-05T14:42:38;6.65;;;1.50;;
73557;SDS011;61829;53.286;10.434;2023-01-05T14:45:05;5.38;;;1.33;;
73557;SDS011;61829;53.286;10.434;2023-01-05T14:47:37;11.20;;;1.10;;
73557;SDS011;61829;53.286;10.434;2023-01-05T14:50:04;6.82;;;1.10;;
73557;SDS011;61829;53.286;10.434;2023-01-05T14:57:55;6.38;;;1.10;;
73557;SDS011;61829;53.286;10.434;2023-01-05T15:00:34;5.78;;;1.17;;
73557;SDS011;61829;53.286;10.434;2023-01-05T15:05:49;10.20;;;1.25;;
73557;SDS011;61829;53.286;10.434;2023-01-05T15:08:32;9.05;;;1.30;;
73557;SDS011;61829;53.286;10.434;2023-01-05T15:11:37;8.65;;;1.00;;
73557;SDS011;61829;53.286;10.434;2023-01-05T15:22:44;7.68;;;1.38;;
73557;SDS011;61829;53.286;10.434;2023-01-05T15:39:29;9.52;;;1.60;;
73557;SDS011;61829;53.286;10.434;2023-01-05T15:42:04;7.57;;;1.20;;
73557;SDS011;61829;53.286;10.434;2023-01-05T15:44:35;8.30;;;1.75;;
73557;SDS011;61829;53.286;10.434;2023-01-05T15:47:04;9.90;;;2.10;;
73557;SDS011;61829;53.286;10.434;2023-01-05T15:49:34;4.70;;;1.45;;
73557;SDS011;61829;53.286;10.434;2023-01-05T15:52:00;6.00;;;2.00;;
73557;SDS011;61829;53.286;10.434;2023-01-05T15:54:28;8.00;;;1.70;;
73557;SDS011;61829;53.286;10.434;2023-01-05T15:56:56;10.45;;;2.45;;
73557;SDS011;61829;53.286;10.434;2023-01-05T15:59:34;6.22;;;1.70;;
73557;SDS011;61829;53.286;10.434;2023-01-05T16:07:45;14.93;;;1.80;;
73557;SDS011;61829;53.286;10.434;2023-01-05T16:10:22;9.05;;;2.60;;
73557;SDS011;61829;53.286;10.434;2023-01-05T16:13:56;12.10;;;2.10;;
73557;SDS011;61829;53.286;10.434;2023-01-05T16:15:58;8.30;;;2.33;;
73557;SDS011;61829;53.286;10.434;2023-01-05T16:18:34;7.80;;;1.52;;
73557;SDS011;61829;53.286;10.434;2023-01-05T16:23:50;11.68;;;2.30;;
73557;SDS011;61829;53.286;10.434;2023-01-05T16:26:20;7.82;;;1.50;;
73557;SDS011;61829;53.286;10.434;2023-01-05T16:28:47;11.00;;;1.27;;
73557;SDS011;61829;53.286;10.434;2023-01-05T16:31:14;4.78;;;1.60;;
73557;SDS011;61829;53.286;10.434;2023-01-05T16:34:00;6.95;;;2.08;;
73557;SDS011;61829;53.286;10.434;2023-01-05T16:36:36;11.15;;;2.03;;
73557;SDS011;61829;53.286;10.434;2023-01-05T16:39:12;11.18;;;3.15;;
73557;SDS011;61829;53.286;10.434;2023-01-05T16:41:46;8.75;;;2.03;;
73557;SDS011;61829;53.286;10.434;2023-01-05T16:44:30;8.07;;;2.30;;
73557;SDS011;61829;53.286;10.434;2023-01-05T16:47:03;10.13;;;2.03;;
73557;SDS011;61829;53.286;10.434;2023-01-05T16:49:37;18.50;;;8.65;;
73557;SDS011;61829;53.286;10.434;2023-01-05T16:54:36;15.07;;;5.43;;
73557;SDS011;61829;53.286;10.434;2023-01-05T17:02:55;12.30;;;2.80;;
73557;SDS011;61829;53.286;10.434;2023-01-05T17:05:32;14.18;;;5.70;;
73557;SDS011;61829;53.286;10.434;2023-01-05T17:11:06;11.88;;;2.50;;
73557;SDS011;61829;53.286;10.434;2023-01-05T17:13:39;13.00;;;2.45;;
73557;SDS011;61829;53.286;10.434;2023-01-05T17:16:17;13.05;;;2.55;;
73557;SDS011;61829;53.286;10.434;2023-01-05T17:18:44;12.52;;;2.08;;
73557;SDS011;61829;53.286;10.434;2023-01-05T17:21:18;8.68;;;2.20;;
73557;SDS011;61829;53.286;10.434;2023-01-05T17:23:47;8.27;;;2.40;;
73557;SDS011;61829;53.286;10.434;2023-01-05T17:26:26;10.30;;;3.30;;
73557;SDS011;61829;53.286;10.434;2023-01-05T17:28:56;13.50;;;2.55;;
73557;SDS011;61829;53.286;10.434;2023-01-05T17:31:23;10.98;;;2.67;;
73557;SDS011;61829;53.286;10.434;2023-01-05T17:33:49;11.80;;;3.53;;
73557;SDS011;61829;53.286;10.434;2023-01-05T17:36:17;11.60;;;4.00;;
73557;SDS011;61829;53.286;10.434;2023-01-05T17:38:45;12.45;;;3.33;;
73557;SDS011;61829;53.286;10.434;2023-01-05T17:41:12;9.60;;;3.15;;
73557;SDS011;61829;53.286;10.434;2023-01-05T17:43:38;9.80;;;2.85;;
73557;SDS011;61829;53.286;10.434;2023-01-05T17:46:05;7.93;;;2.85;;
73557;SDS011;61829;53.286;10.434;2023-01-05T17:48:31;7.72;;;2.38;;
73557;SDS011;61829;53.286;10.434;2023-01-05T17:50:57;9.75;;;2.78;;
73557;SDS011;61829;53.286;10.434;2023-01-05T17:53:24;9.70;;;2.60;;
73557;SDS011;61829;53.286;10.434;2023-01-05T17:55:50;8.43;;;2.53;;
73557;SDS011;61829;53.286;10.434;2023-01-05T17:58:16;7.22;;;2.97;;
73557;SDS011;61829;53.286;10.434;2023-01-05T18:00:43;15.00;;;3.50;;
73557;SDS011;61829;53.286;10.434;2023-01-05T18:03:15;13.32;;;4.20;;
73557;SDS011;61829;53.286;10.434;2023-01-05T18:05:47;11.93;;;4.32;;
73557;SDS011;61829;53.286;10.434;2023-01-05T18:08:16;15.23;;;4.57;;
73557;SDS011;61829;53.286;10.434;2023-01-05T18:10:44;10.98;;;4.43;;
73557;SDS011;61829;53.286;10.434;2023-01-05T18:13:11;10.48;;;4.60;;